KMCC/MCC METAR and TAF weather

Enter ICAO airport designator
Station Type Date Time Source
KMCC METAR 2018/12/19 03:10 UTC NOAA

KMCC 190310Z AUTO 16005KT 10SM OVC065 14/10 A3032 RMK AO2


Station Type Date Time Source
KMCC Decoded METAR 2018/12/19 03:10 UTC NOAA

Sacramento, McClellan Airfield Airport, CA, United States (KMCC) 38-40N 121-24W
Dec 18, 2018 - 10:10 PM EST / 2018.12.19 0310 UTC
Wind: from the SSE (160 degrees) at 6 MPH (5 KT):0
Visibility: 10 mile(s):0
Sky conditions: overcast
Temperature: 57 F (14 C)
Dew Point: 50 F (10 C)
Relative Humidity: 76%
Pressure (altimeter): 30.32 in. Hg (1026 hPa)
ob: KMCC 190310Z AUTO 16005KT 10SM OVC065 14/10 A3032 RMK AO2
cycle: 3

Station Type Date Time Source
KMCC TAF 2018/12/18 18:47 UTC NOAA

TAF KMCC 181740Z 1818/1918 14006KT P6SM OVC100
FM182300 17006KT P6SM OVC050
FM190800 VRB03KT 4SM BR OVC020


Example: see airport list